Flight Track Log - Related Links

Times and Time Zones

All times are in EDT time to prevent confusion due to time zone crossing. See the CHH7134 flight status page for this flight to view local times or setup timezone preferences in your user account.

Time Position Orientation Groundspeed Altitude Reporting Facility
EDT Latitude Longitude Course Direction KTS MPH feet Rate Location/Type
Fri 10:56:00 PM 29.7329 106.7932 84° East  Level Estimated
Fri 10:57:00 PM 29.7463 106.9454 84° East  Level Estimated
Fri 10:58:00 PM 29.7595 107.0977 84° East  Level Estimated
Fri 10:59:00 PM 29.7725 107.2500 84° East  Level Estimated
Fri 11:00:00 PM 29.7853 107.4023 84° East  Level Estimated
Fri 11:01:00 PM 29.7980 107.5547 84° East  Level Estimated
Fri 11:02:00 PM 29.8105 107.7072 85° East  Level Estimated
Fri 11:03:00 PM 29.8228 107.8596 85° East  Level Estimated
Fri 11:04:00 PM 29.8349 108.0121 85° East  Level Estimated
Fri 11:05:00 PM 29.8469 108.1646 85° East  Level Estimated
Fri 11:06:00 PM 29.8587 108.3172 85° East  Level Estimated
Fri 11:07:00 PM 29.8703 108.4698 85° East  Level Estimated
Fri 11:08:00 PM 29.8817 108.6225 85° East  Level Estimated
Fri 11:09:00 PM 29.8930 108.7751 85° East  Level Estimated
Fri 11:10:00 PM 29.9041 108.9278 85° East  Level Estimated
Fri 11:11:00 PM 29.9150 109.0806 85° East  Level Estimated
Fri 11:12:00 PM 29.9257 109.2334 85° East  Level Estimated
Fri 11:13:00 PM 29.9363 109.3862 85° East  Level Estimated
Fri 11:14:00 PM 29.9466 109.5390 85° East  Level Estimated
Fri 11:15:00 PM 29.9568 109.6919 86° East  Level Estimated
Fri 11:16:00 PM 29.9669 109.8448 86° East  Level Estimated
Fri 11:17:00 PM 29.9734 109.9468 86° East  Level Estimated
Fri 11:18:00 PM 29.9800 110.0487 86° East  Level Estimated
Fri 11:19:00 PM 29.9864 110.1507 86° East  Level Estimated
Fri 11:20:00 PM 29.9927 110.2527 86° East  Level Estimated
Fri 11:21:00 PM 29.9990 110.3547 86° East  Level Estimated
Fri 11:22:00 PM 30.0052 110.4567 86° East  Level Estimated
Fri 11:23:00 PM 30.0113 110.5588 86° East  Level Estimated
Fri 11:24:00 PM 30.0174 110.6608 86° East  Level Estimated
Fri 11:25:00 PM 30.0233 110.7629 86° East  Level Estimated
Fri 11:26:00 PM 30.0292 110.8649 86° East  Level Estimated
Fri 11:27:00 PM 30.0350 110.9670 86° East  Level Estimated
Fri 11:28:00 PM 30.0407 111.0691 86° East  Level Estimated
Fri 11:29:00 PM 30.0464 111.1712 86° East  Level Estimated
Fri 11:30:00 PM 30.0519 111.2733 86° East  Level Estimated
Fri 11:31:00 PM 30.0574 111.3755 86° East  Level Estimated
Fri 11:32:00 PM 30.0628 111.4776 86° East  Level Estimated
Fri 11:33:00 PM 30.0681 111.5798 87° East  Level Estimated
Fri 11:34:00 PM 30.0734 111.6819 87° East  Level Estimated
Fri 11:35:00 PM 30.0786 111.7841 87° East  Level Estimated
Fri 11:36:00 PM 30.0837 111.8863 87° East  Level Estimated
Fri 11:37:00 PM 30.0887 111.9885 87° East  Level Estimated
Fri 11:38:00 PM 30.0936 112.0907 87° East  Level Estimated
Fri 11:39:00 PM 30.0984 112.1929 87° East  Level Estimated
Fri 11:40:00 PM 30.1032 112.2951 87° East  Level Estimated
Fri 11:41:00 PM 30.1079 112.3973 87° East  Level Estimated
Fri 11:42:00 PM 30.1125 112.4996 87° East  Level Estimated
Fri 11:43:00 PM 30.1171 112.6018 87° East  Level Estimated
Fri 11:44:00 PM 30.1215 112.7041 87° East  Level Estimated
Fri 11:45:00 PM 30.1259 112.8064 87° East  Level Estimated
Fri 11:46:00 PM 30.1302 112.9086 87° East  Level Estimated
Fri 11:47:00 PM 30.1344 113.0109 87° East  Level Estimated
Fri 11:48:00 PM 30.1386 113.1132 87° East  Level Estimated
Fri 11:49:00 PM 30.1426 113.2155 87° East  Level Estimated
Fri 11:50:00 PM 30.1466 113.3178 87° East  Level Estimated
Fri 11:51:00 PM 30.1505 113.4202 87° East  Level Estimated
Fri 11:52:00 PM 30.1543 113.5225 88° East  Level Estimated
Fri 11:53:00 PM 30.1581 113.6248 88° East  Level Estimated
Fri 11:54:00 PM 30.1617 113.7272 88° East  Level Estimated
Fri 11:55:00 PM 30.1653 113.8295 88° East  Level Estimated
Fri 11:56:00 PM 30.1688 113.9319 88° East  Level Estimated
Fri 11:57:00 PM 30.1723 114.0343 88° East  Level Estimated
Fri 11:58:00 PM 30.1756 114.1366 88° East  Level Estimated
Fri 11:59:00 PM 30.1789 114.2390 88° East  Level Estimated
Sat 12:00:00 AM 30.1821 114.3414 88° East  Level Estimated
Sat 12:01:00 AM 30.1852 114.4438 88° East  Level Estimated
Sat 12:02:00 AM 30.1882 114.5462 88° East  Level Estimated
Sat 12:03:00 AM 30.1911 114.6486 88° East  Level Estimated
Sat 12:04:00 AM 30.1940 114.7510 88° East  Level Estimated
Sat 12:05:00 AM 30.1968 114.8534 88° East  Level Estimated
Sat 12:06:00 AM 30.1995 114.9559 88° East  Level Estimated
Sat 12:07:00 AM 30.2021 115.0583 88° East  Level Estimated
Sat 12:08:00 AM 30.2047 115.1607 88° East  Level Estimated
Sat 12:09:00 AM 30.2071 115.2632 88° East  Level Estimated
Sat 12:10:00 AM 30.2095 115.3656 88° East  Level Estimated
Sat 12:11:00 AM 30.2118 115.4681 88° East  Level Estimated
Sat 12:12:00 AM 30.2141 115.5705 89° East  Level Estimated
Sat 12:13:00 AM 30.2162 115.6730 89° East  Level Estimated
Sat 12:14:00 AM 30.2183 115.7755 89° East  Level Estimated
Sat 12:15:00 AM 30.2203 115.8779 89° East  Level Estimated
Sat 12:16:00 AM 30.2222 115.9804 89° East  Level Estimated
Sat 12:17:00 AM 30.2241 116.0829 89° East  Level Estimated
Sat 12:18:00 AM 30.2258 116.1854 89° East  Level Estimated
Sat 12:19:00 AM 30.2275 116.2878 89° East  Level Estimated
Sat 12:20:00 AM 30.2291 116.3903 89° East  Level Estimated
Sat 12:21:00 AM 30.2306 116.4928 89° East  Level Estimated
Sat 12:22:00 AM 30.2320 116.5953 89° East  Level Estimated
Sat 12:23:00 AM 30.2334 116.6978 89° East  Level Estimated
Sat 12:24:00 AM 30.2346 116.8003 89° East  Level Estimated
Sat 12:25:00 AM 30.2358 116.9028 89° East  Level Estimated
Sat 12:26:00 AM 30.2370 117.0053 89° East  Level Estimated
Sat 12:27:00 AM 30.2380 117.1078 89° East  Level Estimated
Sat 12:28:00 AM 30.2390 117.2103 89° East  Level Estimated
Sat 12:29:00 AM 30.2398 117.3129 89° East  Level Estimated
Sat 12:30:00 AM 30.2406 117.4154 89° East  Level Estimated
Sat 12:31:00 AM 30.2413 117.5179 90° East  Level Estimated
Sat 12:32:00 AM 30.2420 117.6204 90° East  Level Estimated
Sat 12:33:00 AM 30.2425 117.7229 90° East  Level Estimated
Sat 12:34:00 AM 30.2430 117.8254 90° East  Level Estimated
Sat 12:35:00 AM 30.2434 117.9279 90° East  Level Estimated
Sat 12:36:00 AM 30.2437 118.0305 90° East  Level Estimated
Sat 12:37:00 AM 30.2440 118.1330 90° East  Level Estimated
Sat 12:38:00 AM 30.2441 118.2355 90° East  Level Estimated
Sat 12:39:00 AM 30.2442 118.3380 90° East  Level Estimated
Sat 12:40:00 AM 30.2442 118.4406 90° East  Level Estimated
Sat 12:41:00 AM 30.2441 118.5431 90° East  Level Estimated
Sat 12:42:00 AM 30.2439 118.6456 90° East  Level Estimated
Sat 12:43:00 AM 30.2437 118.7481 90° East  Level Estimated
Sat 12:44:00 AM 30.2434 118.8506 90° East  Level Estimated
Sat 12:45:00 AM 30.2430 118.9531 90° East  Level Estimated
Sat 12:46:00 AM 30.2425 119.0557 90° East  Level Estimated
Sat 12:47:00 AM 30.2419 119.1582 90° East  Level Estimated
Sat 12:48:00 AM 30.2413 119.2607 90° East  Level Estimated
Sat 12:49:00 AM 30.2406 119.3632 90° East  Level Estimated
Sat 12:50:00 AM 30.2398 119.4657 90° East  Level Estimated
Sat 12:51:00 AM 30.2389 119.5682 91° East  Level Estimated
Sat 12:52:00 AM 30.2379 119.6708 91° East  Level Estimated
Sat 12:53:00 AM 30.2369 119.7733 91° East  Level Estimated
Sat 12:54:00 AM 30.2358 119.8758 91° East  Level Estimated
Sat 12:55:00 AM 30.2346 119.9783 91° East  Level Estimated
Sat 12:56:00 AM 30.2333 120.0808 91° East  Level Estimated
Sat 12:57:00 AM 30.2320 120.1833 91° East  Level Estimated
Sat 12:58:00 AM 30.2305 120.2858 91° East  Level Estimated
Sat 12:59:00 AM 30.2290 120.3883 91° East  Level Estimated
Sat 01:00:00 AM 30.2283 120.4317 91° East  Level Estimated
Sat 01:01:00 AM 30.2283 120.4317 North  Level Estimated
Sat 01:02:00 AM 30.2283 120.4317 North  Level Estimated
Sat 01:03:00 AM 30.2283 120.4317 North  Level Estimated
Sat 01:04:00 AM 30.2283 120.4317 North  Level Estimated
Sat 01:05:00 AM 30.2283 120.4317 North  Level Estimated
Sat 01:06:00 AM 30.2283 120.4317 North  Level Estimated
Sat 01:07:00 AM 30.2283 120.4317 North  Level Estimated
Sat 01:08:00 AM 30.2283 120.4317 North  Level Estimated
Sat 01:09:00 AM 30.2283 120.4317 North  Level Estimated
Sat 01:10:00 AM 30.2283 120.4317 North  Level Estimated
Sat 01:11:00 AM 30.2283 120.4317 North  Level Estimated

Login

Don't have an account? Register now (free) for customized features, flight alerts, and more!